sensor_id;sensor_type;location;lat;lon;timestamp;pressure;altitude;pressure_sealevel;temperature;humidity
44140;BME280;29803;51.048;4.686;2024-01-15T00:00:05;100560.06;;;2.57;100.00
44140;BME280;29803;51.048;4.686;2024-01-15T00:02:36;100559.81;;;2.60;100.00
44140;BME280;29803;51.048;4.686;2024-01-15T00:05:06;100555.72;;;2.68;100.00
44140;BME280;29803;51.048;4.686;2024-01-15T00:07:37;100568.34;;;2.75;100.00
44140;BME280;29803;51.048;4.686;2024-01-15T00:10:08;100554.50;;;2.83;100.00
44140;BME280;29803;51.048;4.686;2024-01-15T00:12:38;100566.66;;;2.74;100.00
44140;BME280;29803;51.048;4.686;2024-01-15T00:15:09;100578.94;;;2.75;100.00
44140;BME280;29803;51.048;4.686;2024-01-15T00:17:39;100571.00;;;2.75;100.00
44140;BME280;29803;51.048;4.686;2024-01-15T00:20:10;100561.63;;;2.71;100.00
44140;BME280;29803;51.048;4.686;2024-01-15T00:22:40;100560.41;;;2.64;100.00
44140;BME280;29803;51.048;4.686;2024-01-15T00:25:11;100551.75;;;2.51;100.00
44140;BME280;29803;51.048;4.686;2024-01-15T00:27:41;100555.38;;;2.50;100.00
44140;BME280;29803;51.048;4.686;2024-01-15T00:30:12;100545.75;;;2.49;100.00
44140;BME280;29803;51.048;4.686;2024-01-15T00:32:43;100546.94;;;2.45;100.00
44140;BME280;29803;51.048;4.686;2024-01-15T00:35:14;100545.97;;;2.46;100.00
44140;BME280;29803;51.048;4.686;2024-01-15T00:37:44;100540.22;;;2.41;100.00
44140;BME280;29803;51.048;4.686;2024-01-15T00:40:15;100544.56;;;2.42;100.00
44140;BME280;29803;51.048;4.686;2024-01-15T00:42:45;100545.16;;;2.45;100.00
44140;BME280;29803;51.048;4.686;2024-01-15T00:45:16;100536.25;;;2.46;100.00
44140;BME280;29803;51.048;4.686;2024-01-15T00:47:46;100533.47;;;2.48;100.00
44140;BME280;29803;51.048;4.686;2024-01-15T00:50:17;100529.25;;;2.45;100.00
44140;BME280;29803;51.048;4.686;2024-01-15T00:52:48;100525.91;;;2.43;100.00
44140;BME280;29803;51.048;4.686;2024-01-15T00:55:18;100513.88;;;2.39;100.00
44140;BME280;29803;51.048;4.686;2024-01-15T00:57:48;100515.56;;;2.29;100.00
44140;BME280;29803;51.048;4.686;2024-01-15T01:00:19;100513.53;;;2.21;100.00
44140;BME280;29803;51.048;4.686;2024-01-15T01:02:50;100518.22;;;2.18;100.00
44140;BME280;29803;51.048;4.686;2024-01-15T01:05:20;100517.38;;;2.17;100.00
44140;BME280;29803;51.048;4.686;2024-01-15T01:07:51;100518.09;;;2.19;100.00
44140;BME280;29803;51.048;4.686;2024-01-15T01:10:21;100511.34;;;2.15;100.00
44140;BME280;29803;51.048;4.686;2024-01-15T01:12:51;100506.19;;;2.14;100.00
44140;BME280;29803;51.048;4.686;2024-01-15T01:15:22;100498.47;;;2.11;100.00
44140;BME280;29803;51.048;4.686;2024-01-15T01:17:52;100507.50;;;2.08;100.00
44140;BME280;29803;51.048;4.686;2024-01-15T01:20:23;100500.75;;;2.04;100.00
44140;BME280;29803;51.048;4.686;2024-01-15T01:22:53;100498.13;;;2.04;100.00
44140;BME280;29803;51.048;4.686;2024-01-15T01:25:24;100505.00;;;2.06;100.00
44140;BME280;29803;51.048;4.686;2024-01-15T01:27:54;100503.19;;;2.07;100.00
44140;BME280;29803;51.048;4.686;2024-01-15T01:30:25;100505.00;;;2.06;100.00
44140;BME280;29803;51.048;4.686;2024-01-15T01:32:55;100502.34;;;2.06;100.00
44140;BME280;29803;51.048;4.686;2024-01-15T01:35:26;100498.97;;;2.04;100.00
44140;BME280;29803;51.048;4.686;2024-01-15T01:37:56;100498.47;;;1.99;100.00
44140;BME280;29803;51.048;4.686;2024-01-15T01:40:27;100504.72;;;1.98;100.00
44140;BME280;29803;51.048;4.686;2024-01-15T01:42:57;100498.13;;;1.93;100.00
44140;BME280;29803;51.048;4.686;2024-01-15T01:45:28;100501.00;;;1.90;100.00
44140;BME280;29803;51.048;4.686;2024-01-15T01:47:59;100502.66;;;1.91;100.00
44140;BME280;29803;51.048;4.686;2024-01-15T01:50:31;100494.63;;;1.92;100.00
44140;BME280;29803;51.048;4.686;2024-01-15T01:53:02;100499.66;;;1.84;100.00
44140;BME280;29803;51.048;4.686;2024-01-15T01:55:34;100499.31;;;1.89;100.00
44140;BME280;29803;51.048;4.686;2024-01-15T01:58:06;100500.41;;;1.86;100.00
44140;BME280;29803;51.048;4.686;2024-01-15T02:00:37;100500.88;;;1.91;100.00
44140;BME280;29803;51.048;4.686;2024-01-15T02:03:08;100497.16;;;1.94;100.00
44140;BME280;29803;51.048;4.686;2024-01-15T02:05:39;100498.25;;;1.91;100.00
44140;BME280;29803;51.048;4.686;2024-01-15T02:08:16;100504.72;;;1.87;100.00
44140;BME280;29803;51.048;4.686;2024-01-15T02:10:47;100499.53;;;1.86;100.00
44140;BME280;29803;51.048;4.686;2024-01-15T02:13:33;100502.44;;;1.83;100.00
44140;BME280;29803;51.048;4.686;2024-01-15T02:16:04;100495.81;;;1.77;100.00
44140;BME280;29803;51.048;4.686;2024-01-15T02:18:41;100491.94;;;1.70;100.00
44140;BME280;29803;51.048;4.686;2024-01-15T02:21:12;100500.72;;;1.70;100.00
44140;BME280;29803;51.048;4.686;2024-01-15T02:23:43;100500.63;;;1.72;100.00
44140;BME280;29803;51.048;4.686;2024-01-15T02:26:14;100494.59;;;1.70;100.00
44140;BME280;29803;51.048;4.686;2024-01-15T02:28:44;100485.81;;;1.69;100.00
44140;BME280;29803;51.048;4.686;2024-01-15T02:31:15;100479.69;;;1.69;100.00
44140;BME280;29803;51.048;4.686;2024-01-15T02:33:46;100491.09;;;1.69;100.00
44140;BME280;29803;51.048;4.686;2024-01-15T02:36:16;100477.66;;;1.72;100.00
44140;BME280;29803;51.048;4.686;2024-01-15T02:38:47;100479.69;;;1.80;100.00
44140;BME280;29803;51.048;4.686;2024-01-15T02:41:17;100485.81;;;1.80;100.00
44140;BME280;29803;51.048;4.686;2024-01-15T02:43:48;100480.19;;;1.85;100.00
44140;BME280;29803;51.048;4.686;2024-01-15T02:46:18;100482.00;;;1.85;100.00
44140;BME280;29803;51.048;4.686;2024-01-15T02:48:49;100485.38;;;1.87;100.00
44140;BME280;29803;51.048;4.686;2024-01-15T02:51:19;100489.69;;;1.88;100.00
44140;BME280;29803;51.048;4.686;2024-01-15T02:53:52;100481.16;;;1.95;100.00
44140;BME280;29803;51.048;4.686;2024-01-15T02:56:22;100482.50;;;2.01;100.00
44140;BME280;29803;51.048;4.686;2024-01-15T02:58:53;100484.03;;;2.03;100.00
44140;BME280;29803;51.048;4.686;2024-01-15T03:01:24;100484.03;;;2.03;100.00
44140;BME280;29803;51.048;4.686;2024-01-15T03:03:54;100476.09;;;2.03;100.00
44140;BME280;29803;51.048;4.686;2024-01-15T03:06:26;100473.09;;;2.08;100.00
44140;BME280;29803;51.048;4.686;2024-01-15T03:08:56;100476.22;;;2.13;100.00
44140;BME280;29803;51.048;4.686;2024-01-15T03:11:37;100472.97;;;2.10;100.00
44140;BME280;29803;51.048;4.686;2024-01-15T03:14:07;100478.16;;;2.11;100.00
44140;BME280;29803;51.048;4.686;2024-01-15T03:16:39;100480.34;;;2.06;100.00
44140;BME280;29803;51.048;4.686;2024-01-15T03:19:09;100483.56;;;2.10;100.00
44140;BME280;29803;51.048;4.686;2024-01-15T03:21:41;100472.75;;;2.13;100.00
44140;BME280;29803;51.048;4.686;2024-01-15T03:24:11;100470.31;;;2.10;100.00
44140;BME280;29803;51.048;4.686;2024-01-15T03:26:43;100464.19;;;2.09;100.00
44140;BME280;29803;51.048;4.686;2024-01-15T03:29:13;100458.41;;;2.15;100.00
44140;BME280;29803;51.048;4.686;2024-01-15T03:31:46;100460.97;;;2.17;100.00
44140;BME280;29803;51.048;4.686;2024-01-15T03:34:18;100459.72;;;2.21;100.00
44140;BME280;29803;51.048;4.686;2024-01-15T03:36:50;100461.06;;;2.26;100.00
44140;BME280;29803;51.048;4.686;2024-01-15T03:39:20;100451.78;;;2.32;100.00
44140;BME280;29803;51.048;4.686;2024-01-15T03:41:51;100457.56;;;2.26;100.00
44140;BME280;29803;51.048;4.686;2024-01-15T03:44:21;100449.38;;;2.29;100.00
44140;BME280;29803;51.048;4.686;2024-01-15T03:46:52;100450.22;;;2.29;100.00
44140;BME280;29803;51.048;4.686;2024-01-15T03:49:22;100449.84;;;2.34;100.00
44140;BME280;29803;51.048;4.686;2024-01-15T03:51:53;100446.38;;;2.33;100.00
44140;BME280;29803;51.048;4.686;2024-01-15T03:54:23;100433.13;;;2.33;100.00
44140;BME280;29803;51.048;4.686;2024-01-15T03:56:54;100429.66;;;2.33;100.00
44140;BME280;29803;51.048;4.686;2024-01-15T03:59:24;100417.13;;;2.35;100.00
44140;BME280;29803;51.048;4.686;2024-01-15T04:01:54;100413.41;;;2.38;100.00
44140;BME280;29803;51.048;4.686;2024-01-15T04:04:25;100407.38;;;2.36;100.00
44140;BME280;29803;51.048;4.686;2024-01-15T04:06:55;100405.13;;;2.31;100.00
44140;BME280;29803;51.048;4.686;2024-01-15T04:09:26;100412.78;;;2.34;100.00
44140;BME280;29803;51.048;4.686;2024-01-15T04:11:56;100405.81;;;2.33;100.00
44140;BME280;29803;51.048;4.686;2024-01-15T04:14:27;100405.97;;;2.31;100.00
44140;BME280;29803;51.048;4.686;2024-01-15T04:16:57;100411.44;;;2.40;100.00
44140;BME280;29803;51.048;4.686;2024-01-15T04:19:27;100401.69;;;2.40;100.00
44140;BME280;29803;51.048;4.686;2024-01-15T04:21:58;100408.34;;;2.34;100.00
44140;BME280;29803;51.048;4.686;2024-01-15T04:24:28;100411.81;;;2.35;100.00
44140;BME280;29803;51.048;4.686;2024-01-15T04:27:01;100407.63;;;2.32;100.00
44140;BME280;29803;51.048;4.686;2024-01-15T04:29:32;100404.38;;;2.29;100.00
44140;BME280;29803;51.048;4.686;2024-01-15T04:32:02;100405.34;;;2.28;100.00
44140;BME280;29803;51.048;4.686;2024-01-15T04:34:33;100399.31;;;2.26;100.00
44140;BME280;29803;51.048;4.686;2024-01-15T04:37:03;100397.53;;;2.26;100.00
44140;BME280;29803;51.048;4.686;2024-01-15T04:39:34;100396.59;;;2.16;100.00
44140;BME280;29803;51.048;4.686;2024-01-15T04:42:04;100383.09;;;2.19;100.00
44140;BME280;29803;51.048;4.686;2024-01-15T04:44:35;100390.72;;;2.13;100.00
44140;BME280;29803;51.048;4.686;2024-01-15T04:47:05;100386.50;;;2.10;100.00
44140;BME280;29803;51.048;4.686;2024-01-15T04:49:36;100384.22;;;2.17;100.00
44140;BME280;29803;51.048;4.686;2024-01-15T04:52:06;100384.81;;;2.09;100.00
44140;BME280;29803;51.048;4.686;2024-01-15T04:54:37;100397.06;;;2.10;100.00
44140;BME280;29803;51.048;4.686;2024-01-15T04:57:07;100392.03;;;2.07;100.00
44140;BME280;29803;51.048;4.686;2024-01-15T04:59:37;100392.41;;;2.02;100.00
44140;BME280;29803;51.048;4.686;2024-01-15T05:02:08;100394.72;;;1.96;100.00
44140;BME280;29803;51.048;4.686;2024-01-15T05:04:38;100393.50;;;1.89;100.00
44140;BME280;29803;51.048;4.686;2024-01-15T05:07:09;100386.66;;;1.86;100.00
44140;BME280;29803;51.048;4.686;2024-01-15T05:09:40;100390.84;;;1.89;100.00
44140;BME280;29803;51.048;4.686;2024-01-15T05:12:10;100386.06;;;1.83;100.00
44140;BME280;29803;51.048;4.686;2024-01-15T05:14:42;100385.91;;;1.84;100.00
44140;BME280;29803;51.048;4.686;2024-01-15T05:17:12;100386.28;;;1.79;100.00
44140;BME280;29803;51.048;4.686;2024-01-15T05:19:43;100382.81;;;1.79;100.00
44140;BME280;29803;51.048;4.686;2024-01-15T05:22:13;100389.19;;;1.76;100.00
44140;BME280;29803;51.048;4.686;2024-01-15T05:24:43;100380.63;;;1.84;100.00
44140;BME280;29803;51.048;4.686;2024-01-15T05:27:14;100384.13;;;1.85;100.00
44140;BME280;29803;51.048;4.686;2024-01-15T05:29:44;100380.28;;;1.89;100.00
44140;BME280;29803;51.048;4.686;2024-01-15T05:32:15;100379.06;;;1.93;100.00
44140;BME280;29803;51.048;4.686;2024-01-15T05:34:45;100384.00;;;1.97;100.00
44140;BME280;29803;51.048;4.686;2024-01-15T05:37:16;100374.13;;;1.99;100.00
44140;BME280;29803;51.048;4.686;2024-01-15T05:39:46;100371.47;;;1.99;100.00
44140;BME280;29803;51.048;4.686;2024-01-15T05:42:17;100376.06;;;1.97;100.00
44140;BME280;29803;51.048;4.686;2024-01-15T05:44:47;100368.72;;;1.90;100.00
44140;BME280;29803;51.048;4.686;2024-01-15T05:47:18;100361.75;;;1.89;100.00
44140;BME280;29803;51.048;4.686;2024-01-15T05:49:48;100360.69;;;1.91;100.00
44140;BME280;29803;51.048;4.686;2024-01-15T05:52:19;100366.81;;;1.92;100.00
44140;BME280;29803;51.048;4.686;2024-01-15T05:54:51;100360.69;;;1.91;100.00
44140;BME280;29803;51.048;4.686;2024-01-15T05:57:21;100360.31;;;1.85;100.00
44140;BME280;29803;51.048;4.686;2024-01-15T05:59:53;100355.38;;;1.91;100.00
44140;BME280;29803;51.048;4.686;2024-01-15T06:02:24;100356.47;;;1.89;100.00
44140;BME280;29803;51.048;4.686;2024-01-15T06:04:54;100346.34;;;1.94;100.00
44140;BME280;29803;51.048;4.686;2024-01-15T06:07:25;100344.69;;;1.93;100.00
44140;BME280;29803;51.048;4.686;2024-01-15T06:09:55;100349.50;;;1.88;100.00
44140;BME280;29803;51.048;4.686;2024-01-15T06:12:28;100345.28;;;1.85;100.00
44140;BME280;29803;51.048;4.686;2024-01-15T06:14:58;100338.91;;;1.88;100.00
44140;BME280;29803;51.048;4.686;2024-01-15T06:17:28;100336.88;;;1.91;100.00
44140;BME280;29803;51.048;4.686;2024-01-15T06:19:59;100345.66;;;1.92;100.00
44140;BME280;29803;51.048;4.686;2024-01-15T06:22:29;100345.50;;;1.93;100.00
44140;BME280;29803;51.048;4.686;2024-01-15T06:25:00;100351.66;;;1.94;100.00
44140;BME280;29803;51.048;4.686;2024-01-15T06:27:30;100348.16;;;1.93;100.00
44140;BME280;29803;51.048;4.686;2024-01-15T06:30:01;100362.97;;;1.96;100.00
44140;BME280;29803;51.048;4.686;2024-01-15T06:32:32;100359.34;;;1.97;100.00
44140;BME280;29803;51.048;4.686;2024-01-15T06:35:02;100349.72;;;1.96;100.00
44140;BME280;29803;51.048;4.686;2024-01-15T06:37:33;100349.47;;;1.99;100.00
44140;BME280;29803;51.048;4.686;2024-01-15T06:40:04;100351.66;;;1.94;100.00
44140;BME280;29803;51.048;4.686;2024-01-15T06:42:35;100353.31;;;1.95;100.00
44140;BME280;29803;51.048;4.686;2024-01-15T06:45:06;100358.38;;;1.98;100.00
44140;BME280;29803;51.048;4.686;2024-01-15T06:47:37;100349.94;;;2.04;100.00
44140;BME280;29803;51.048;4.686;2024-01-15T06:50:08;100362.81;;;2.08;100.00
44140;BME280;29803;51.048;4.686;2024-01-15T06:52:38;100356.91;;;2.05;100.00
44140;BME280;29803;51.048;4.686;2024-01-15T06:55:09;100351.16;;;2.00;100.00
44140;BME280;29803;51.048;4.686;2024-01-15T06:57:39;100354.53;;;2.02;100.00
44140;BME280;29803;51.048;4.686;2024-01-15T07:00:10;100352.84;;;2.01;100.00
44140;BME280;29803;51.048;4.686;2024-01-15T07:02:40;100353.56;;;2.03;100.00
44140;BME280;29803;51.048;4.686;2024-01-15T07:05:11;100356.06;;;2.04;100.00
44140;BME280;29803;51.048;4.686;2024-01-15T07:07:41;100358.84;;;2.03;100.00
44140;BME280;29803;51.048;4.686;2024-01-15T07:10:12;100356.81;;;2.06;100.00
44140;BME280;29803;51.048;4.686;2024-01-15T07:12:43;100347.44;;;2.02;100.00
44140;BME280;29803;51.048;4.686;2024-01-15T07:15:14;100348.13;;;2.04;100.00
44140;BME280;29803;51.048;4.686;2024-01-15T07:17:45;100345.75;;;2.01;100.00
44140;BME280;29803;51.048;4.686;2024-01-15T07:20:15;100359.09;;;2.00;100.00
44140;BME280;29803;51.048;4.686;2024-01-15T07:22:46;100354.06;;;1.97;100.00
44140;BME280;29803;51.048;4.686;2024-01-15T07:25:16;100358.16;;;2.01;100.00
44140;BME280;29803;51.048;4.686;2024-01-15T07:27:47;100359.44;;;2.06;100.00
44140;BME280;29803;51.048;4.686;2024-01-15T07:30:17;100363.50;;;2.11;100.00
44140;BME280;29803;51.048;4.686;2024-01-15T07:32:48;100364.25;;;2.13;100.00
44140;BME280;29803;51.048;4.686;2024-01-15T07:35:18;100366.06;;;2.12;100.00
44140;BME280;29803;51.048;4.686;2024-01-15T07:37:49;100366.06;;;2.12;100.00
44140;BME280;29803;51.048;4.686;2024-01-15T07:40:19;100373.53;;;2.07;100.00
44140;BME280;29803;51.048;4.686;2024-01-15T07:42:51;100372.78;;;2.05;100.00
44140;BME280;29803;51.048;4.686;2024-01-15T07:45:21;100369.81;;;1.98;100.00
44140;BME280;29803;51.048;4.686;2024-01-15T07:47:52;100372.81;;;1.94;100.00
44140;BME280;29803;51.048;4.686;2024-01-15T07:50:22;100377.25;;;1.93;100.00
44140;BME280;29803;51.048;4.686;2024-01-15T07:52:53;100373.78;;;1.93;100.00
44140;BME280;29803;51.048;4.686;2024-01-15T07:55:23;100383.53;;;1.92;100.00
44140;BME280;29803;51.048;4.686;2024-01-15T07:57:53;100388.44;;;1.97;100.00
44140;BME280;29803;51.048;4.686;2024-01-15T08:00:28;100384.47;;;2.02;100.00
44140;BME280;29803;51.048;4.686;2024-01-15T08:02:59;100400.09;;;2.05;100.00
44140;BME280;29803;51.048;4.686;2024-01-15T08:05:29;100402.97;;;2.14;100.00
44140;BME280;29803;51.048;4.686;2024-01-15T08:08:00;100399.47;;;2.13;100.00
44140;BME280;29803;51.048;4.686;2024-01-15T08:10:31;100392.50;;;2.12;100.00
44140;BME280;29803;51.048;4.686;2024-01-15T08:13:01;100394.44;;;2.10;100.00
44140;BME280;29803;51.048;4.686;2024-01-15T08:15:31;100392.03;;;2.07;100.00
44140;BME280;29803;51.048;4.686;2024-01-15T08:18:02;100396.50;;;2.06;100.00
44140;BME280;29803;51.048;4.686;2024-01-15T08:20:33;100396.38;;;2.08;100.00
44140;BME280;29803;51.048;4.686;2024-01-15T08:23:04;100404.53;;;2.05;100.00
44140;BME280;29803;51.048;4.686;2024-01-15T08:25:34;100398.31;;;2.06;100.00
44140;BME280;29803;51.048;4.686;2024-01-15T08:28:05;100402.50;;;2.08;100.00
44140;BME280;29803;51.048;4.686;2024-01-15T08:30:35;100405.75;;;2.12;100.00
44140;BME280;29803;51.048;4.686;2024-01-15T08:33:06;100411.75;;;2.14;100.00
44140;BME280;29803;51.048;4.686;2024-01-15T08:35:36;100401.03;;;2.16;100.00
44140;BME280;29803;51.048;4.686;2024-01-15T08:38:07;100406.22;;;2.17;100.00
44140;BME280;29803;51.048;4.686;2024-01-15T08:40:38;100408.59;;;2.20;100.00
44140;BME280;29803;51.048;4.686;2024-01-15T08:43:08;100404.41;;;2.18;100.00
44140;BME280;29803;51.048;4.686;2024-01-15T08:45:38;100408.88;;;2.17;100.00
44140;BME280;29803;51.048;4.686;2024-01-15T08:48:09;100403.31;;;2.20;100.00
44140;BME280;29803;51.048;4.686;2024-01-15T08:50:39;100405.47;;;2.15;100.00
44140;BME280;29803;51.048;4.686;2024-01-15T08:53:10;100391.03;;;2.19;100.00
44140;BME280;29803;51.048;4.686;2024-01-15T08:55:40;100392.63;;;2.22;100.00
44140;BME280;29803;51.048;4.686;2024-01-15T08:58:12;100399.22;;;2.27;100.00
44140;BME280;29803;51.048;4.686;2024-01-15T09:00:43;100397.53;;;2.26;100.00
44140;BME280;29803;51.048;4.686;2024-01-15T09:03:13;100391.75;;;2.32;100.00
44140;BME280;29803;51.048;4.686;2024-01-15T09:05:44;100401.59;;;2.42;100.00
44140;BME280;29803;51.048;4.686;2024-01-15T09:08:15;100402.91;;;2.47;100.00
44140;BME280;29803;51.048;4.686;2024-01-15T09:10:45;100402.91;;;2.47;100.00
44140;BME280;29803;51.048;4.686;2024-01-15T09:13:16;100405.75;;;2.55;100.00
44140;BME280;29803;51.048;4.686;2024-01-15T09:15:46;100406.00;;;2.52;100.00
44140;BME280;29803;51.048;4.686;2024-01-15T09:18:17;100410.66;;;2.60;100.00
44140;BME280;29803;51.048;4.686;2024-01-15T09:20:47;100406.56;;;2.67;100.00
44140;BME280;29803;51.048;4.686;2024-01-15T09:23:18;100404.69;;;2.79;100.00
44140;BME280;29803;51.048;4.686;2024-01-15T09:25:48;100405.16;;;2.84;100.00
44140;BME280;29803;51.048;4.686;2024-01-15T09:28:19;100407.66;;;2.85;100.00
44140;BME280;29803;51.048;4.686;2024-01-15T09:30:50;100406.97;;;2.83;100.00
44140;BME280;29803;51.048;4.686;2024-01-15T09:33:20;100403.47;;;2.83;100.00
44140;BME280;29803;51.048;4.686;2024-01-15T09:35:51;100410.69;;;2.81;100.00
44140;BME280;29803;51.048;4.686;2024-01-15T09:38:21;100413.50;;;2.79;100.00
44140;BME280;29803;51.048;4.686;2024-01-15T09:40:52;100415.06;;;2.82;100.00
44140;BME280;29803;51.048;4.686;2024-01-15T09:43:23;100418.41;;;2.84;100.00
44140;BME280;29803;51.048;4.686;2024-01-15T09:45:53;100422.19;;;3.02;100.00
44140;BME280;29803;51.048;4.686;2024-01-15T09:48:25;100426.59;;;3.13;100.00
44140;BME280;29803;51.048;4.686;2024-01-15T09:50:57;100424.31;;;3.29;100.00
44140;BME280;29803;51.048;4.686;2024-01-15T09:53:29;100422.28;;;3.63;100.00
44140;BME280;29803;51.048;4.686;2024-01-15T09:56:00;100428.44;;;3.95;100.00
44140;BME280;29803;51.048;4.686;2024-01-15T09:58:32;100427.50;;;4.15;100.00
44140;BME280;29803;51.048;4.686;2024-01-15T10:01:04;100435.53;;;4.34;100.00
44140;BME280;29803;51.048;4.686;2024-01-15T10:03:34;100437.53;;;4.52;100.00
44140;BME280;29803;51.048;4.686;2024-01-15T10:06:06;100440.34;;;4.70;100.00
44140;BME280;29803;51.048;4.686;2024-01-15T10:08:38;100440.53;;;4.87;100.00
44140;BME280;29803;51.048;4.686;2024-01-15T10:11:09;100433.25;;;4.89;100.00
44140;BME280;29803;51.048;4.686;2024-01-15T10:13:40;100438.81;;;5.06;100.00
44140;BME280;29803;51.048;4.686;2024-01-15T10:16:11;100434.22;;;5.08;100.00
44140;BME280;29803;51.048;4.686;2024-01-15T10:18:41;100425.81;;;5.12;100.00
44140;BME280;29803;51.048;4.686;2024-01-15T10:21:13;100429.75;;;5.18;100.00
44140;BME280;29803;51.048;4.686;2024-01-15T10:23:44;100430.84;;;5.15;100.00
44140;BME280;29803;51.048;4.686;2024-01-15T10:26:14;100428.59;;;5.20;100.00
44140;BME280;29803;51.048;4.686;2024-01-15T10:28:45;100440.78;;;5.23;100.00
44140;BME280;29803;51.048;4.686;2024-01-15T10:31:15;100433.34;;;5.17;100.00
44140;BME280;29803;51.048;4.686;2024-01-15T10:33:46;100433.78;;;5.22;100.00
44140;BME280;29803;51.048;4.686;2024-01-15T10:36:17;100440.47;;;5.26;100.00
44140;BME280;29803;51.048;4.686;2024-01-15T10:38:47;100439.53;;;5.27;100.00
44140;BME280;29803;51.048;4.686;2024-01-15T10:41:18;100437.25;;;5.42;100.00
44140;BME280;29803;51.048;4.686;2024-01-15T10:43:49;100443.28;;;5.44;100.00
44140;BME280;29803;51.048;4.686;2024-01-15T10:46:19;100437.09;;;5.53;100.00
44140;BME280;29803;51.048;4.686;2024-01-15T10:48:50;100436.94;;;5.55;100.00
44140;BME280;29803;51.048;4.686;2024-01-15T10:51:21;100436.09;;;5.54;100.00
44140;BME280;29803;51.048;4.686;2024-01-15T10:53:53;100440.41;;;5.65;100.00
44140;BME280;29803;51.048;4.686;2024-01-15T10:56:24;100441.78;;;5.79;100.00
44140;BME280;29803;51.048;4.686;2024-01-15T10:58:55;100437.00;;;5.92;100.00
44140;BME280;29803;51.048;4.686;2024-01-15T11:01:28;100447.63;;;5.92;100.00
44140;BME280;29803;51.048;4.686;2024-01-15T11:03:59;100437.69;;;5.84;100.00
44140;BME280;29803;51.048;4.686;2024-01-15T11:06:41;100446.31;;;5.59;100.00
44140;BME280;29803;51.048;4.686;2024-01-15T11:09:13;100433.91;;;5.20;100.00
44140;BME280;29803;51.048;4.686;2024-01-15T11:11:46;100438.69;;;4.98;100.00
44140;BME280;29803;51.048;4.686;2024-01-15T11:14:39;100444.97;;;4.97;100.00
44140;BME280;29803;51.048;4.686;2024-01-15T11:17:10;100441.34;;;4.88;100.00
44140;BME280;29803;51.048;4.686;2024-01-15T11:25:18;100447.22;;;4.72;100.00
44140;BME280;29803;51.048;4.686;2024-01-15T11:27:51;100446.66;;;4.78;100.00
44140;BME280;29803;51.048;4.686;2024-01-15T11:30:25;100442.75;;;4.82;100.00
44140;BME280;29803;51.048;4.686;2024-01-15T11:32:55;100421.50;;;4.82;100.00
44140;BME280;29803;51.048;4.686;2024-01-15T11:35:49;100441.91;;;5.01;100.00
44140;BME280;29803;51.048;4.686;2024-01-15T11:38:27;100436.59;;;4.91;100.00
44140;BME280;29803;51.048;4.686;2024-01-15T11:40:59;100435.31;;;4.76;100.00
44140;BME280;29803;51.048;4.686;2024-01-15T11:43:32;100441.06;;;5.01;100.00
44140;BME280;29803;51.048;4.686;2024-01-15T11:46:03;100428.16;;;5.44;100.00
44140;BME280;29803;51.048;4.686;2024-01-15T11:48:42;100441.09;;;5.67;100.00
44140;BME280;29803;51.048;4.686;2024-01-15T11:51:17;100450.91;;;5.66;100.00
44140;BME280;29803;51.048;4.686;2024-01-15T11:53:51;100460.06;;;5.44;100.00
44140;BME280;29803;51.048;4.686;2024-01-15T11:56:26;100465.72;;;4.93;100.00
44140;BME280;29803;51.048;4.686;2024-01-15T11:58:56;100449.25;;;4.39;100.00
44140;BME280;29803;51.048;4.686;2024-01-15T12:01:27;100468.59;;;3.80;100.00
44140;BME280;29803;51.048;4.686;2024-01-15T12:03:58;100466.03;;;3.48;100.00
44140;BME280;29803;51.048;4.686;2024-01-15T12:06:28;100467.94;;;3.36;100.00
44140;BME280;29803;51.048;4.686;2024-01-15T12:09:07;100480.91;;;3.19;100.00
44140;BME280;29803;51.048;4.686;2024-01-15T12:11:41;100511.50;;;2.79;100.00
44140;BME280;29803;51.048;4.686;2024-01-15T12:14:15;100505.44;;;2.34;100.00
44140;BME280;29803;51.048;4.686;2024-01-15T12:16:46;100488.28;;;2.06;100.00
44140;BME280;29803;51.048;4.686;2024-01-15T12:19:17;100482.84;;;1.96;100.00
44140;BME280;29803;51.048;4.686;2024-01-15T12:21:47;100473.47;;;1.92;100.00
44140;BME280;29803;51.048;4.686;2024-01-15T12:24:18;100478.28;;;1.98;100.00
44140;BME280;29803;51.048;4.686;2024-01-15T12:26:48;100473.59;;;2.13;100.00
44140;BME280;29803;51.048;4.686;2024-01-15T12:29:19;100487.03;;;2.32;100.00
44140;BME280;29803;51.048;4.686;2024-01-15T12:31:51;100498.59;;;2.43;100.00
44140;BME280;29803;51.048;4.686;2024-01-15T12:34:22;100490.84;;;2.51;100.00
44140;BME280;29803;51.048;4.686;2024-01-15T12:36:52;100484.63;;;2.52;100.00
44140;BME280;29803;51.048;4.686;2024-01-15T12:39:22;100496.72;;;2.66;100.00
44140;BME280;29803;51.048;4.686;2024-01-15T12:41:54;100512.16;;;2.60;100.00
44140;BME280;29803;51.048;4.686;2024-01-15T12:44:25;100514.72;;;2.06;100.00
44140;BME280;29803;51.048;4.686;2024-01-15T12:46:56;100525.63;;;1.79;100.00
44140;BME280;29803;51.048;4.686;2024-01-15T12:49:28;100530.28;;;1.64;100.00
44140;BME280;29803;51.048;4.686;2024-01-15T12:51:59;100546.00;;;1.54;100.00
44140;BME280;29803;51.048;4.686;2024-01-15T12:54:30;100538.19;;;1.53;100.00
44140;BME280;29803;51.048;4.686;2024-01-15T12:57:01;100527.84;;;1.50;100.00
44140;BME280;29803;51.048;4.686;2024-01-15T12:59:31;100530.59;;;1.48;100.00
44140;BME280;29803;51.048;4.686;2024-01-15T13:02:02;100539.75;;;1.55;100.00
44140;BME280;29803;51.048;4.686;2024-01-15T13:04:32;100526.19;;;1.60;100.00
44140;BME280;29803;51.048;4.686;2024-01-15T13:07:03;100537.75;;;1.70;100.00
44140;BME280;29803;51.048;4.686;2024-01-15T13:09:34;100538.97;;;1.77;100.00
44140;BME280;29803;51.048;4.686;2024-01-15T13:12:05;100542.59;;;1.88;100.00
44140;BME280;29803;51.048;4.686;2024-01-15T13:14:36;100543.31;;;1.90;100.00